createdAt,value
2022-12-06T00:00:33.233Z,2.24
2022-12-06T00:01:33.228Z,2.35
2022-12-06T00:02:33.283Z,2.32
2022-12-06T00:03:33.272Z,2.32
2022-12-06T00:04:33.197Z,2.32
2022-12-06T00:05:33.542Z,2.33
2022-12-06T00:06:33.184Z,2.26
2022-12-06T00:07:33.282Z,2.32
2022-12-06T00:08:33.188Z,2.33
2022-12-06T00:09:33.165Z,2.32
2022-12-06T00:10:33.155Z,2.33
2022-12-06T00:11:33.159Z,2.35
2022-12-06T00:12:33.148Z,2.38
2022-12-06T00:13:33.135Z,2.31
2022-12-06T00:14:33.128Z,2.32
2022-12-06T00:15:33.123Z,2.36
2022-12-06T00:16:33.339Z,2.39
2022-12-06T00:17:33.106Z,2.35
2022-12-06T00:18:33.097Z,2.35
2022-12-06T00:19:33.096Z,2.36
2022-12-06T00:20:33.089Z,2.46
2022-12-06T00:21:33.078Z,2.36
2022-12-06T00:22:33.069Z,2.35
2022-12-06T00:23:33.067Z,2.50
2022-12-06T00:24:33.075Z,2.47
2022-12-06T00:25:33.052Z,2.47
2022-12-06T00:26:33.049Z,2.51
2022-12-06T00:27:33.035Z,2.57
2022-12-06T00:28:33.029Z,2.53
2022-12-06T00:29:33.020Z,2.60
2022-12-06T00:30:33.014Z,2.56
2022-12-06T00:31:33.043Z,2.65
2022-12-06T00:32:32.999Z,2.71
2022-12-06T00:33:33.018Z,2.72
2022-12-06T00:34:32.991Z,2.75
2022-12-06T00:35:32.980Z,2.74
2022-12-06T00:36:32.969Z,2.83
2022-12-06T00:37:32.964Z,2.86
2022-12-06T00:38:32.953Z,2.95
2022-12-06T00:39:32.950Z,2.92
2022-12-06T00:40:32.960Z,2.93
2022-12-06T00:41:32.936Z,2.86
2022-12-06T00:42:32.927Z,2.92
2022-12-06T00:43:32.923Z,2.89
2022-12-06T00:44:32.913Z,2.97
2022-12-06T00:45:32.953Z,2.92
2022-12-06T00:46:32.983Z,2.83
2022-12-06T00:47:32.893Z,2.87
2022-12-06T00:48:32.885Z,2.79
2022-12-06T00:49:32.878Z,2.79
2022-12-06T00:50:32.871Z,2.82
2022-12-06T00:51:32.866Z,2.74
2022-12-06T00:52:32.857Z,2.80
2022-12-06T00:53:32.854Z,2.80
2022-12-06T00:54:32.847Z,2.83
2022-12-06T00:55:32.836Z,2.92
2022-12-06T00:56:32.846Z,2.86
2022-12-06T00:57:32.822Z,2.97
2022-12-06T00:58:32.813Z,2.92
2022-12-06T00:59:32.808Z,2.93
2022-12-06T01:00:32.808Z,2.95
2022-12-06T01:01:32.953Z,2.93
2022-12-06T01:02:32.795Z,2.80
2022-12-06T01:03:35.179Z,3.04
2022-12-06T01:04:32.776Z,3.00
2022-12-06T01:05:32.765Z,2.98
2022-12-06T01:06:32.759Z,2.98
2022-12-06T01:07:32.782Z,3.01
2022-12-06T01:08:32.744Z,2.95
2022-12-06T01:09:32.737Z,2.98
2022-12-06T01:10:32.928Z,2.98
2022-12-06T01:11:32.724Z,3.01
2022-12-06T01:12:32.733Z,3.00
2022-12-06T01:13:32.712Z,2.89
2022-12-06T01:14:32.699Z,2.79
2022-12-06T01:15:32.705Z,2.80
2022-12-06T01:16:32.761Z,2.83
2022-12-06T01:17:32.683Z,2.74
2022-12-06T01:18:32.672Z,2.75
2022-12-06T01:19:32.672Z,2.71
2022-12-06T01:20:32.658Z,2.71
2022-12-06T01:21:32.653Z,2.71
2022-12-06T01:22:32.647Z,2.69
2022-12-06T01:23:32.638Z,2.67
2022-12-06T01:24:32.630Z,2.69
2022-12-06T01:25:35.812Z,2.68
2022-12-06T01:26:32.626Z,2.69
2022-12-06T01:27:32.612Z,2.65
2022-12-06T01:28:32.628Z,2.77
2022-12-06T01:29:32.597Z,2.79
2022-12-06T01:30:32.647Z,2.83
2022-12-06T01:31:38.184Z,2.85
2022-12-06T01:32:32.574Z,2.85
2022-12-06T01:33:32.570Z,2.95
2022-12-06T01:34:32.557Z,2.92
2022-12-06T01:35:32.552Z,2.92
2022-12-06T01:36:32.545Z,2.90
2022-12-06T01:37:32.541Z,2.92
2022-12-06T01:38:32.531Z,2.89
2022-12-06T01:39:32.525Z,2.97
2022-12-06T01:40:32.519Z,2.87
2022-12-06T01:41:32.516Z,2.85
2022-12-06T01:42:32.509Z,2.82
2022-12-06T01:43:32.500Z,2.87
2022-12-06T01:44:32.510Z,2.77
2022-12-06T01:45:32.484Z,2.68
2022-12-06T01:46:32.530Z,2.67
2022-12-06T01:47:32.472Z,2.65
2022-12-06T01:48:32.461Z,2.57
2022-12-06T01:49:32.460Z,2.54
2022-12-06T01:50:32.446Z,2.43
2022-12-06T01:51:32.448Z,2.50
2022-12-06T01:52:32.436Z,2.47
2022-12-06T01:53:32.426Z,2.47
2022-12-06T01:54:32.416Z,2.46
2022-12-06T01:55:32.413Z,2.38
2022-12-06T01:56:32.402Z,2.33
2022-12-06T01:57:32.399Z,2.36
2022-12-06T01:58:32.390Z,2.43
2022-12-06T01:59:32.381Z,2.31
2022-12-06T02:00:32.396Z,2.31
2022-12-06T02:01:32.417Z,2.35
2022-12-06T02:02:32.457Z,2.33
2022-12-06T02:03:32.353Z,2.33
2022-12-06T02:04:32.350Z,2.32
2022-12-06T02:05:36.178Z,2.31
2022-12-06T02:06:32.335Z,2.31
2022-12-06T02:07:32.402Z,2.32
2022-12-06T02:08:32.319Z,2.32
2022-12-06T02:09:32.317Z,2.35
2022-12-06T02:10:32.655Z,2.35
2022-12-06T02:11:35.434Z,2.36
2022-12-06T02:12:32.293Z,2.32
2022-12-06T02:13:32.285Z,2.31
2022-12-06T02:14:32.279Z,2.29
2022-12-06T02:15:32.286Z,2.36
2022-12-06T02:16:32.401Z,2.32
2022-12-06T02:17:32.255Z,2.29
2022-12-06T02:18:32.247Z,2.33
2022-12-06T02:19:32.238Z,2.35
2022-12-06T02:20:32.236Z,2.32
2022-12-06T02:21:32.225Z,2.29
2022-12-06T02:22:32.226Z,2.38
2022-12-06T02:23:32.210Z,2.36
2022-12-06T02:24:32.205Z,2.29
2022-12-06T02:25:34.181Z,2.28
2022-12-06T02:26:32.189Z,2.29
2022-12-06T02:27:32.182Z,2.33
2022-12-06T02:28:32.176Z,2.32
2022-12-06T02:29:32.168Z,2.36
2022-12-06T02:30:32.261Z,2.32
2022-12-06T02:31:32.210Z,2.42
2022-12-06T02:32:32.166Z,2.39
2022-12-06T02:33:32.138Z,2.33
2022-12-06T02:34:32.130Z,2.38
2022-12-06T02:35:32.125Z,2.42
2022-12-06T02:36:32.117Z,2.36
2022-12-06T02:37:32.109Z,2.46
2022-12-06T02:38:32.105Z,2.46
2022-12-06T02:39:32.097Z,2.36
2022-12-06T02:40:32.090Z,2.42
2022-12-06T02:41:32.087Z,2.42
2022-12-06T02:42:32.073Z,2.29
2022-12-06T02:43:32.067Z,2.38
2022-12-06T02:44:32.072Z,2.33
2022-12-06T02:45:32.063Z,2.29
2022-12-06T02:46:32.087Z,2.43
2022-12-06T02:47:32.047Z,2.38
2022-12-06T02:48:32.051Z,2.36
2022-12-06T02:49:32.030Z,2.46
2022-12-06T02:50:32.019Z,2.29
2022-12-06T02:51:32.012Z,2.44
2022-12-06T02:52:32.005Z,2.39
2022-12-06T02:53:31.995Z,2.39
2022-12-06T02:54:31.991Z,2.39
2022-12-06T02:55:31.982Z,2.39
2022-12-06T02:56:31.976Z,2.38
2022-12-06T02:57:31.970Z,2.36
2022-12-06T02:58:31.961Z,2.39
2022-12-06T02:59:31.961Z,2.36
2022-12-06T03:00:31.952Z,2.38
2022-12-06T03:01:32.004Z,2.39
2022-12-06T03:02:32.005Z,2.42
2022-12-06T03:03:31.923Z,2.42
2022-12-06T03:04:31.941Z,2.33
2022-12-06T03:05:31.910Z,2.39
2022-12-06T03:06:31.905Z,2.31
2022-12-06T03:07:31.940Z,2.35
2022-12-06T03:08:31.891Z,2.39
2022-12-06T03:09:31.882Z,2.35
2022-12-06T03:10:31.877Z,2.38
2022-12-06T03:11:31.868Z,2.29
2022-12-06T03:12:31.863Z,2.33
2022-12-06T03:13:31.855Z,2.36
2022-12-06T03:14:31.849Z,2.29
2022-12-06T03:15:31.921Z,2.33
2022-12-06T03:16:31.834Z,2.36
2022-12-06T03:17:31.826Z,2.32
2022-12-06T03:18:31.831Z,2.42
2022-12-06T03:19:31.810Z,2.39
2022-12-06T03:20:31.829Z,2.42
2022-12-06T03:21:31.799Z,2.38
2022-12-06T03:22:35.580Z,2.33
2022-12-06T03:23:31.783Z,2.33
2022-12-06T03:24:31.778Z,2.36
2022-12-06T03:25:31.771Z,2.39
2022-12-06T03:26:31.764Z,2.38
2022-12-06T03:27:31.753Z,2.42
2022-12-06T03:28:31.746Z,2.42
2022-12-06T03:29:31.742Z,2.36
2022-12-06T03:30:31.732Z,2.39
2022-12-06T03:31:31.787Z,2.39
2022-12-06T03:32:31.723Z,2.35
2022-12-06T03:33:31.716Z,2.38
2022-12-06T03:34:31.709Z,2.35
2022-12-06T03:35:31.698Z,2.39
2022-12-06T03:36:31.708Z,2.35
2022-12-06T03:37:31.681Z,2.43
2022-12-06T03:38:31.680Z,2.42
2022-12-06T03:39:31.668Z,2.36
2022-12-06T03:40:31.661Z,2.39
2022-12-06T03:41:31.655Z,2.39
2022-12-06T03:42:31.660Z,2.43
2022-12-06T03:43:31.638Z,2.43
2022-12-06T03:44:31.634Z,2.42
2022-12-06T03:45:31.724Z,2.44
2022-12-06T03:46:31.723Z,2.46
2022-12-06T03:47:31.610Z,2.46
2022-12-06T03:48:31.606Z,2.39
2022-12-06T03:49:31.599Z,2.51
2022-12-06T03:50:31.591Z,2.47
2022-12-06T03:51:31.588Z,2.47
2022-12-06T03:52:31.598Z,2.49
2022-12-06T03:53:31.567Z,2.46
2022-12-06T03:54:31.566Z,2.61
2022-12-06T03:55:31.558Z,2.49
2022-12-06T03:56:31.553Z,2.50
2022-12-06T03:57:31.541Z,2.43
2022-12-06T03:58:31.534Z,2.51
2022-12-06T03:59:31.524Z,2.56
2022-12-06T04:00:31.519Z,2.61
2022-12-06T04:01:31.603Z,2.60
2022-12-06T04:02:31.509Z,2.57
2022-12-06T04:03:31.548Z,2.67
2022-12-06T04:04:31.493Z,2.62
2022-12-06T04:05:31.485Z,2.72
2022-12-06T04:06:31.491Z,2.79
2022-12-06T04:07:31.539Z,2.75
2022-12-06T04:08:31.495Z,2.77
2022-12-06T04:09:31.459Z,2.85
2022-12-06T04:10:31.449Z,2.85
2022-12-06T04:11:31.439Z,2.80
2022-12-06T04:12:31.434Z,2.80
2022-12-06T04:13:31.433Z,2.80
2022-12-06T04:14:31.423Z,2.82
2022-12-06T04:15:31.410Z,2.95
2022-12-06T04:16:31.462Z,2.87
2022-12-06T04:17:31.406Z,2.89
2022-12-06T04:18:31.391Z,2.89
2022-12-06T04:19:31.385Z,2.90
2022-12-06T04:20:31.382Z,2.95
2022-12-06T04:21:31.369Z,2.93
2022-12-06T04:22:31.363Z,2.98
2022-12-06T04:23:31.358Z,2.95
2022-12-06T04:24:31.372Z,2.92
2022-12-06T04:25:31.344Z,2.92
2022-12-06T04:26:31.334Z,2.98
2022-12-06T04:27:31.331Z,2.95
2022-12-06T04:28:31.323Z,3.03
2022-12-06T04:29:31.318Z,3.04
2022-12-06T04:30:31.307Z,2.98
2022-12-06T04:31:31.336Z,2.95
2022-12-06T04:32:31.296Z,2.93
2022-12-06T04:33:31.284Z,2.86
2022-12-06T04:34:31.287Z,2.83
2022-12-06T04:35:31.270Z,2.85
2022-12-06T04:36:31.264Z,2.83
2022-12-06T04:37:31.257Z,2.80
2022-12-06T04:38:31.251Z,2.80
2022-12-06T04:39:31.241Z,2.80
2022-12-06T04:40:31.255Z,2.77
2022-12-06T04:41:31.230Z,2.75
2022-12-06T04:42:31.231Z,2.86
2022-12-06T04:43:31.223Z,2.79
2022-12-06T04:44:31.211Z,2.87
2022-12-06T04:45:31.210Z,2.87
2022-12-06T04:46:31.279Z,2.98
2022-12-06T04:47:31.201Z,2.89
2022-12-06T04:48:31.184Z,2.95
2022-12-06T04:49:31.174Z,2.95
2022-12-06T04:50:31.169Z,3.01
2022-12-06T04:51:31.158Z,2.97
2022-12-06T04:52:35.506Z,2.95
2022-12-06T04:53:31.145Z,2.93
2022-12-06T04:54:31.139Z,2.95
2022-12-06T04:55:31.133Z,2.87
2022-12-06T04:56:31.145Z,2.87
2022-12-06T04:57:31.116Z,2.87
2022-12-06T04:58:31.112Z,2.92
2022-12-06T04:59:31.103Z,2.86
2022-12-06T05:00:31.188Z,2.86
2022-12-06T05:01:31.088Z,2.82
2022-12-06T05:02:31.084Z,2.85
2022-12-06T05:03:31.225Z,2.75
2022-12-06T05:04:31.091Z,2.71
2022-12-06T05:05:31.062Z,2.77
2022-12-06T05:06:31.059Z,2.71
2022-12-06T05:07:31.050Z,2.71
2022-12-06T05:08:31.044Z,2.65
2022-12-06T05:09:31.053Z,2.67
2022-12-06T05:10:31.029Z,2.67
2022-12-06T05:11:31.016Z,2.72
2022-12-06T05:12:31.033Z,2.74
2022-12-06T05:13:31.004Z,2.69
2022-12-06T05:14:30.997Z,2.79
2022-12-06T05:15:30.989Z,2.79
2022-12-06T05:16:31.013Z,2.82
2022-12-06T05:17:30.977Z,2.90
2022-12-06T05:18:30.970Z,2.86
2022-12-06T05:19:30.962Z,2.92
2022-12-06T05:20:30.955Z,2.80
2022-12-06T05:21:30.954Z,2.92
2022-12-06T05:22:30.942Z,2.89
2022-12-06T05:23:30.934Z,2.83
2022-12-06T05:24:30.928Z,2.83
2022-12-06T05:25:30.929Z,2.83
2022-12-06T05:26:30.917Z,2.83
2022-12-06T05:27:35.763Z,2.82
2022-12-06T05:28:30.919Z,2.86
2022-12-06T05:29:30.894Z,2.82
2022-12-06T05:30:30.886Z,2.85
2022-12-06T05:31:30.951Z,2.86
2022-12-06T05:32:30.873Z,2.89
2022-12-06T05:33:30.865Z,2.87
2022-12-06T05:34:30.857Z,2.98
2022-12-06T05:35:30.850Z,3.00
2022-12-06T05:36:30.851Z,2.97
2022-12-06T05:37:30.843Z,2.97
2022-12-06T05:38:30.831Z,3.01
2022-12-06T05:39:30.830Z,3.01
2022-12-06T05:40:30.841Z,2.97
2022-12-06T05:41:30.810Z,3.03
2022-12-06T05:42:30.814Z,3.01
2022-12-06T05:43:30.794Z,3.00
2022-12-06T05:44:30.806Z,2.98
2022-12-06T05:45:30.889Z,2.95
2022-12-06T05:46:30.775Z,3.00
2022-12-06T05:47:30.768Z,3.05
2022-12-06T05:48:30.788Z,3.05
2022-12-06T05:49:30.752Z,2.93
2022-12-06T05:50:30.746Z,2.98
2022-12-06T05:51:30.736Z,3.13
2022-12-06T05:52:30.736Z,3.05
2022-12-06T05:53:30.723Z,3.14
2022-12-06T05:54:30.719Z,3.07
2022-12-06T05:55:30.709Z,3.08
2022-12-06T05:56:30.703Z,3.16
2022-12-06T05:57:30.695Z,3.11
2022-12-06T05:58:30.696Z,3.07
2022-12-06T05:59:30.686Z,3.11
2022-12-06T06:00:30.701Z,3.13
2022-12-06T06:01:30.666Z,3.07
2022-12-06T06:02:30.823Z,3.11
2022-12-06T06:03:30.734Z,3.13
2022-12-06T06:04:30.661Z,3.19
2022-12-06T06:05:30.644Z,3.21
2022-12-06T06:06:30.644Z,3.18
2022-12-06T06:07:30.625Z,3.25
2022-12-06T06:08:30.620Z,3.22
2022-12-06T06:09:30.616Z,3.16
2022-12-06T06:10:30.606Z,3.28
2022-12-06T06:11:30.599Z,3.11
2022-12-06T06:12:30.595Z,3.21
2022-12-06T06:13:30.585Z,3.08
2022-12-06T06:14:30.579Z,3.11
2022-12-06T06:15:30.573Z,3.11
2022-12-06T06:16:30.661Z,3.13
2022-12-06T06:17:30.559Z,3.08
2022-12-06T06:18:30.548Z,3.07
2022-12-06T06:19:30.546Z,3.08
2022-12-06T06:20:30.541Z,3.10
2022-12-06T06:21:30.555Z,3.16
2022-12-06T06:22:30.527Z,3.14
2022-12-06T06:23:30.522Z,3.18
2022-12-06T06:24:30.526Z,3.18
2022-12-06T06:25:30.504Z,3.18
2022-12-06T06:26:30.492Z,3.18
2022-12-06T06:27:30.489Z,3.18
2022-12-06T06:28:30.481Z,3.18
2022-12-06T06:29:30.475Z,3.16
2022-12-06T06:30:30.464Z,3.18
2022-12-06T06:31:30.537Z,3.18
2022-12-06T06:32:30.471Z,3.26
2022-12-06T06:33:30.452Z,3.31
2022-12-06T06:34:30.436Z,3.21
2022-12-06T06:35:30.434Z,3.34
2022-12-06T06:36:30.423Z,3.37
2022-12-06T06:37:30.418Z,3.34
2022-12-06T06:38:30.408Z,3.32
2022-12-06T06:39:30.410Z,3.44
2022-12-06T06:40:30.396Z,3.41
2022-12-06T06:41:30.391Z,3.36
2022-12-06T06:42:30.383Z,3.34
2022-12-06T06:43:30.375Z,3.31
2022-12-06T06:44:30.369Z,3.36
2022-12-06T06:45:30.362Z,3.36
2022-12-06T06:46:30.416Z,3.19
2022-12-06T06:47:30.347Z,3.28
2022-12-06T06:48:30.362Z,3.29
2022-12-06T06:49:30.335Z,3.22
2022-12-06T06:50:30.324Z,3.36
2022-12-06T06:51:30.321Z,3.31
2022-12-06T06:52:30.311Z,3.29
2022-12-06T06:53:30.309Z,3.37
2022-12-06T06:54:30.299Z,3.36
2022-12-06T06:55:30.298Z,3.41
2022-12-06T06:56:30.287Z,3.40
2022-12-06T06:57:30.280Z,3.40
2022-12-06T06:58:30.270Z,3.45
2022-12-06T06:59:30.266Z,3.44
2022-12-06T07:00:30.260Z,3.36
2022-12-06T07:01:30.324Z,3.36
2022-12-06T07:02:30.292Z,3.40
2022-12-06T07:03:30.243Z,3.36
2022-12-06T07:04:30.260Z,3.37
2022-12-06T07:05:30.226Z,3.36
2022-12-06T07:06:30.218Z,3.37
2022-12-06T07:07:30.215Z,3.36
2022-12-06T07:08:30.202Z,3.34
2022-12-06T07:09:30.196Z,3.34
2022-12-06T07:10:30.315Z,3.37
2022-12-06T07:11:30.183Z,3.40
2022-12-06T07:12:30.180Z,3.31
2022-12-06T07:13:30.168Z,3.31
2022-12-06T07:14:30.162Z,3.26
2022-12-06T07:15:30.408Z,3.22
2022-12-06T07:16:30.209Z,3.26
2022-12-06T07:17:30.144Z,3.29
2022-12-06T07:18:30.133Z,3.25
2022-12-06T07:19:30.129Z,3.29
2022-12-06T07:20:30.136Z,3.36
2022-12-06T07:21:30.114Z,3.40
2022-12-06T07:22:30.103Z,3.50
2022-12-06T07:23:30.100Z,3.44
2022-12-06T07:24:30.092Z,3.44
2022-12-06T07:25:30.113Z,3.47
2022-12-06T07:26:30.085Z,3.45
2022-12-06T07:27:30.079Z,3.50
2022-12-06T07:28:30.063Z,3.47
2022-12-06T07:29:30.097Z,3.47
2022-12-06T07:30:30.113Z,3.48
2022-12-06T07:31:30.149Z,3.55
2022-12-06T07:32:30.059Z,3.44
2022-12-06T07:33:30.037Z,3.55
2022-12-06T07:34:30.022Z,3.53
2022-12-06T07:35:55.722Z,3.42
2022-12-06T07:36:30.027Z,3.50
2022-12-06T07:37:30.006Z,3.48
2022-12-06T07:38:29.994Z,3.41
2022-12-06T07:39:29.989Z,3.40
2022-12-06T07:40:56.015Z,3.40
2022-12-06T07:41:29.976Z,3.31
2022-12-06T07:42:29.967Z,3.26
2022-12-06T07:43:29.961Z,3.32
2022-12-06T07:44:29.953Z,3.31
2022-12-06T07:45:29.951Z,3.22
2022-12-06T07:46:30.059Z,3.14
2022-12-06T07:47:29.935Z,3.23
2022-12-06T07:48:29.926Z,3.25
2022-12-06T07:49:29.923Z,3.21
2022-12-06T07:50:29.912Z,3.11
2022-12-06T07:51:29.907Z,3.16
2022-12-06T07:52:29.916Z,3.14
2022-12-06T07:53:29.895Z,3.16
2022-12-06T07:54:29.885Z,3.16
2022-12-06T07:55:29.879Z,3.14
2022-12-06T07:56:29.873Z,3.14
2022-12-06T07:57:29.866Z,3.19
2022-12-06T07:58:29.857Z,3.18
2022-12-06T07:59:29.880Z,3.19
2022-12-06T08:00:29.845Z,3.18
2022-12-06T08:01:30.007Z,3.13
2022-12-06T08:02:29.839Z,3.14
2022-12-06T08:03:29.826Z,3.18
2022-12-06T08:04:29.883Z,3.14
2022-12-06T08:05:29.811Z,3.11
2022-12-06T08:06:29.804Z,3.13
2022-12-06T08:07:29.802Z,3.18
2022-12-06T08:08:29.874Z,3.14
2022-12-06T08:09:29.783Z,3.18
2022-12-06T08:10:29.777Z,3.26
2022-12-06T08:11:29.770Z,3.23
2022-12-06T08:12:30.221Z,3.29
2022-12-06T08:13:29.756Z,3.29
2022-12-06T08:14:29.750Z,3.31
2022-12-06T08:15:29.746Z,3.32
2022-12-06T08:16:29.809Z,3.23
2022-12-06T08:17:29.735Z,3.22
2022-12-06T08:18:29.719Z,3.18
2022-12-06T08:19:29.715Z,3.32
2022-12-06T08:20:29.706Z,3.28
2022-12-06T08:21:29.702Z,3.26
2022-12-06T08:22:29.695Z,3.28
2022-12-06T08:23:34.105Z,3.23
2022-12-06T08:24:29.698Z,3.23
2022-12-06T08:25:29.675Z,3.40
2022-12-06T08:26:29.670Z,3.36
2022-12-06T08:27:29.661Z,3.42
2022-12-06T08:28:29.651Z,3.47
2022-12-06T08:29:29.649Z,3.45
2022-12-06T08:30:29.638Z,3.47
2022-12-06T08:31:29.764Z,3.50
2022-12-06T08:32:29.625Z,3.53
2022-12-06T08:33:29.639Z,3.59
2022-12-06T08:34:29.612Z,3.59
2022-12-06T08:35:29.606Z,3.59
2022-12-06T08:36:29.595Z,3.65
2022-12-06T08:37:29.593Z,3.65
2022-12-06T08:38:29.587Z,3.56
2022-12-06T08:39:29.580Z,3.56
2022-12-06T08:40:29.586Z,3.66
2022-12-06T08:41:29.563Z,3.66
2022-12-06T08:42:29.559Z,3.70
2022-12-06T08:43:29.551Z,3.73
2022-12-06T08:44:29.542Z,3.78
2022-12-06T08:45:29.540Z,3.77
2022-12-06T08:46:29.611Z,3.73
2022-12-06T08:47:29.527Z,3.78
2022-12-06T08:48:29.515Z,3.80
2022-12-06T08:49:29.511Z,3.76
2022-12-06T08:50:29.504Z,3.74
2022-12-06T08:51:29.497Z,3.73
2022-12-06T08:52:29.488Z,3.70
2022-12-06T08:53:29.546Z,3.69
2022-12-06T08:54:29.475Z,3.62
2022-12-06T08:55:29.473Z,3.59
2022-12-06T08:56:29.481Z,3.59
2022-12-06T08:57:29.459Z,3.53
2022-12-06T08:58:29.444Z,3.60
2022-12-06T08:59:29.441Z,3.58
2022-12-06T09:00:29.435Z,3.51
2022-12-06T09:01:35.788Z,3.55
2022-12-06T09:02:29.418Z,3.56
2022-12-06T09:03:29.416Z,3.48
2022-12-06T09:04:29.426Z,3.56
2022-12-06T09:05:29.400Z,3.53
2022-12-06T09:06:29.392Z,3.58
2022-12-06T09:07:29.388Z,3.55
2022-12-06T09:08:29.383Z,3.55
2022-12-06T09:09:29.373Z,3.60
2022-12-06T09:10:29.364Z,3.47
2022-12-06T09:11:29.363Z,3.63
2022-12-06T09:12:29.390Z,3.55
2022-12-06T09:13:29.345Z,3.44
2022-12-06T09:14:29.341Z,3.58
2022-12-06T09:15:29.336Z,3.50
2022-12-06T09:16:29.369Z,3.55
2022-12-06T09:17:29.324Z,3.48
2022-12-06T09:18:29.310Z,3.58
2022-12-06T09:19:29.306Z,3.59
2022-12-06T09:20:29.547Z,3.59
2022-12-06T09:21:29.296Z,3.63
2022-12-06T09:22:29.282Z,3.58
2022-12-06T09:23:29.279Z,3.60
2022-12-06T09:24:29.270Z,3.62
2022-12-06T09:25:29.265Z,3.70
2022-12-06T09:26:29.257Z,3.78
2022-12-06T09:27:29.253Z,3.86
2022-12-06T09:28:29.262Z,3.87
2022-12-06T09:29:29.238Z,3.83
2022-12-06T09:30:29.232Z,3.87
2022-12-06T09:31:29.304Z,4.05
2022-12-06T09:32:29.219Z,4.04
2022-12-06T09:33:29.210Z,3.98
2022-12-06T09:34:29.204Z,4.01
2022-12-06T09:35:29.196Z,4.04
2022-12-06T09:36:29.191Z,4.05
2022-12-06T09:37:29.188Z,4.02
2022-12-06T09:38:29.176Z,4.13
2022-12-06T09:39:29.169Z,3.98
2022-12-06T09:40:29.164Z,4.01
2022-12-06T09:41:29.161Z,4.12
2022-12-06T09:42:29.148Z,4.04
2022-12-06T09:43:29.144Z,4.06
2022-12-06T09:44:29.155Z,4.02
2022-12-06T09:45:29.131Z,4.04
2022-12-06T09:46:29.150Z,4.08
2022-12-06T09:47:29.118Z,3.96
2022-12-06T09:48:29.113Z,3.98
2022-12-06T09:49:29.111Z,3.84
2022-12-06T09:50:29.102Z,3.88
2022-12-06T09:51:29.089Z,3.87
2022-12-06T09:52:29.089Z,3.86
2022-12-06T09:53:29.076Z,3.86
2022-12-06T09:54:29.066Z,3.83
2022-12-06T09:55:29.066Z,3.87
2022-12-06T09:56:29.061Z,3.80
2022-12-06T09:57:29.054Z,3.80
2022-12-06T09:58:29.040Z,3.81
2022-12-06T09:59:29.037Z,3.76
2022-12-06T10:00:29.047Z,3.81
2022-12-06T10:01:29.089Z,3.80
2022-12-06T10:02:29.056Z,3.76
2022-12-06T10:03:29.097Z,3.86
2022-12-06T10:04:28.998Z,3.88
2022-12-06T10:05:29.015Z,3.76
2022-12-06T10:06:28.986Z,3.80
2022-12-06T10:07:28.993Z,3.77
2022-12-06T10:08:29.154Z,3.78
2022-12-06T10:09:28.973Z,3.78
2022-12-06T10:10:28.959Z,3.91
2022-12-06T10:11:28.962Z,3.95
2022-12-06T10:12:28.946Z,3.96
2022-12-06T10:13:28.942Z,4.02
2022-12-06T10:14:28.934Z,4.13
2022-12-06T10:15:28.930Z,4.13
2022-12-06T10:16:29.026Z,4.22
2022-12-06T10:17:28.922Z,4.17
2022-12-06T10:18:28.906Z,4.28
2022-12-06T10:19:28.901Z,4.30
2022-12-06T10:20:28.894Z,4.34
2022-12-06T10:21:29.143Z,4.26
2022-12-06T10:22:28.880Z,4.32
2022-12-06T10:23:28.875Z,4.37
2022-12-06T10:24:28.865Z,4.37
2022-12-06T10:25:28.863Z,4.31
2022-12-06T10:26:28.853Z,4.40
2022-12-06T10:27:28.846Z,4.40
2022-12-06T10:28:28.839Z,4.40
2022-12-06T10:29:29.973Z,4.48
2022-12-06T10:30:28.825Z,4.50
2022-12-06T10:31:28.854Z,4.42
2022-12-06T10:32:28.842Z,4.55
2022-12-06T10:33:28.805Z,4.50
2022-12-06T10:34:28.804Z,4.49
2022-12-06T10:35:28.795Z,4.60
2022-12-06T10:36:28.788Z,4.62
2022-12-06T10:37:28.782Z,4.58
2022-12-06T10:38:28.775Z,4.59
2022-12-06T10:39:28.766Z,4.56
2022-12-06T10:40:28.761Z,4.59
2022-12-06T10:41:28.756Z,4.56
2022-12-06T10:42:28.747Z,4.59
2022-12-06T10:43:28.742Z,4.63
2022-12-06T10:44:28.736Z,4.67
2022-12-06T10:45:28.727Z,4.68
2022-12-06T10:46:28.854Z,4.67
2022-12-06T10:47:28.714Z,4.66
2022-12-06T10:48:28.736Z,4.66
2022-12-06T10:49:28.700Z,4.67
2022-12-06T10:50:28.698Z,4.53
2022-12-06T10:51:28.736Z,4.56
2022-12-06T10:52:28.698Z,4.58
2022-12-06T10:53:28.677Z,4.53
2022-12-06T10:54:28.669Z,4.52
2022-12-06T10:55:28.662Z,4.49
2022-12-06T10:56:28.664Z,4.44
2022-12-06T10:57:28.652Z,4.42
2022-12-06T10:58:28.649Z,4.42
2022-12-06T10:59:28.635Z,4.45
2022-12-06T11:00:28.638Z,4.44
2022-12-06T11:01:28.798Z,4.50
2022-12-06T11:02:28.683Z,4.49
2022-12-06T11:03:28.612Z,4.49
2022-12-06T11:04:28.622Z,4.49
2022-12-06T11:05:28.602Z,4.42
2022-12-06T11:06:28.598Z,4.52
2022-12-06T11:07:28.588Z,4.44
2022-12-06T11:08:28.578Z,4.50
2022-12-06T11:09:28.571Z,4.55
2022-12-06T11:10:28.567Z,4.58
2022-12-06T11:11:28.556Z,4.60
2022-12-06T11:12:31.553Z,4.66
2022-12-06T11:13:28.545Z,4.71
2022-12-06T11:14:28.537Z,4.75
2022-12-06T11:15:28.531Z,4.78
2022-12-06T11:16:28.611Z,4.84
2022-12-06T11:17:28.518Z,4.86
2022-12-06T11:18:28.517Z,4.96
2022-12-06T11:19:28.507Z,5.00
2022-12-06T11:20:28.524Z,5.04
2022-12-06T11:21:28.492Z,5.12
2022-12-06T11:22:28.488Z,5.11
2022-12-06T11:23:28.479Z,5.18
2022-12-06T11:24:28.475Z,5.23
2022-12-06T11:25:28.466Z,5.15
2022-12-06T11:26:28.811Z,5.17
2022-12-06T11:27:28.454Z,5.14
2022-12-06T11:28:28.448Z,5.20
2022-12-06T11:29:28.447Z,5.18
2022-12-06T11:30:28.437Z,5.17
2022-12-06T11:31:28.491Z,5.21
2022-12-06T11:32:28.421Z,5.21
2022-12-06T11:33:28.414Z,5.21
2022-12-06T11:34:28.413Z,5.18
2022-12-06T11:35:28.402Z,5.18
2022-12-06T11:36:28.418Z,5.10
2022-12-06T11:37:28.389Z,5.11
2022-12-06T11:38:28.383Z,5.07
2022-12-06T11:39:28.377Z,5.11
2022-12-06T11:40:28.372Z,5.15
2022-12-06T11:41:28.364Z,5.15
2022-12-06T11:42:28.370Z,5.14
2022-12-06T11:43:28.352Z,5.23
2022-12-06T11:44:28.352Z,5.23
2022-12-06T11:45:28.340Z,5.30
2022-12-06T11:46:28.380Z,5.21
2022-12-06T11:47:28.325Z,5.32
2022-12-06T11:48:28.323Z,5.36
2022-12-06T11:49:28.310Z,5.30
2022-12-06T11:50:28.323Z,5.33
2022-12-06T11:51:28.321Z,5.32
2022-12-06T11:52:28.317Z,5.28
2022-12-06T11:53:28.288Z,5.38
2022-12-06T11:54:28.295Z,5.33
2022-12-06T11:55:28.276Z,5.39
2022-12-06T11:56:28.268Z,5.29
2022-12-06T11:57:28.267Z,5.41
2022-12-06T11:58:28.255Z,5.43
2022-12-06T11:59:28.248Z,5.41
2022-12-06T12:00:30.851Z,5.43
2022-12-06T12:01:28.237Z,5.50
2022-12-06T12:02:28.276Z,5.50
2022-12-06T12:03:28.321Z,5.48
2022-12-06T12:04:28.222Z,5.59
2022-12-06T12:05:28.216Z,5.56
2022-12-06T12:06:28.204Z,5.57
2022-12-06T12:07:28.197Z,5.50
2022-12-06T12:08:32.460Z,5.51
2022-12-06T12:09:28.182Z,5.53
2022-12-06T12:10:28.177Z,5.50
2022-12-06T12:11:28.171Z,5.54
2022-12-06T12:12:28.168Z,5.57
2022-12-06T12:13:28.157Z,5.62
2022-12-06T12:14:28.155Z,5.62
2022-12-06T12:15:28.155Z,5.62
2022-12-06T12:16:28.271Z,5.59
2022-12-06T12:17:28.131Z,5.62
2022-12-06T12:18:28.127Z,5.53
2022-12-06T12:19:28.121Z,5.61
2022-12-06T12:20:28.115Z,5.66
2022-12-06T12:21:28.106Z,5.61
2022-12-06T12:22:28.106Z,5.61
2022-12-06T12:23:28.092Z,5.65
2022-12-06T12:24:28.112Z,5.56
2022-12-06T12:25:28.343Z,5.64
2022-12-06T12:26:28.079Z,5.64
2022-12-06T12:27:28.733Z,5.65
2022-12-06T12:28:28.065Z,5.62
2022-12-06T12:29:28.057Z,5.64
2022-12-06T12:30:28.052Z,5.57
2022-12-06T12:31:28.268Z,5.66
2022-12-06T12:32:28.039Z,5.62
2022-12-06T12:33:28.033Z,5.66
2022-12-06T12:34:28.026Z,5.65
2022-12-06T12:35:28.024Z,5.71
2022-12-06T12:36:28.015Z,5.69
2022-12-06T12:37:28.009Z,5.71
2022-12-06T12:38:28.001Z,5.65
2022-12-06T12:39:27.997Z,5.68
2022-12-06T12:40:28.022Z,5.66
2022-12-06T12:41:27.982Z,5.64
2022-12-06T12:42:27.983Z,5.66
2022-12-06T12:43:27.970Z,5.66
2022-12-06T12:44:37.489Z,5.59
2022-12-06T12:45:27.958Z,5.57
2022-12-06T12:46:28.001Z,5.59
2022-12-06T12:47:27.945Z,5.57
2022-12-06T12:48:27.943Z,5.53
2022-12-06T12:49:27.931Z,5.50
2022-12-06T12:50:27.928Z,5.53
2022-12-06T12:51:27.926Z,5.53
2022-12-06T12:52:27.916Z,5.57
2022-12-06T12:53:27.909Z,5.51
2022-12-06T12:54:27.901Z,5.43
2022-12-06T12:55:27.894Z,5.46
2022-12-06T12:56:27.911Z,5.39
2022-12-06T12:57:27.882Z,5.48
2022-12-06T12:58:31.698Z,5.48
2022-12-06T12:59:27.869Z,5.57
2022-12-06T13:00:27.877Z,5.57
2022-12-06T13:01:27.993Z,5.51
2022-12-06T13:02:27.903Z,5.56
2022-12-06T13:03:50.064Z,5.53
2022-12-06T13:04:27.841Z,5.57
2022-12-06T13:05:35.781Z,5.53
2022-12-06T13:06:27.826Z,5.54
2022-12-06T13:07:27.823Z,5.53
2022-12-06T13:08:27.816Z,5.62
2022-12-06T13:09:27.812Z,5.47
2022-12-06T13:10:27.802Z,5.53
2022-12-06T13:11:27.810Z,5.59
2022-12-06T13:12:27.813Z,5.65
2022-12-06T13:13:27.786Z,5.54
2022-12-06T13:14:27.783Z,5.62
2022-12-06T13:15:27.772Z,5.61
2022-12-06T13:16:27.817Z,5.64
2022-12-06T13:17:27.756Z,5.57
2022-12-06T13:18:27.766Z,5.59